Time;durP1;ratioP1;P1;durP2;ratioP2;P2;SDS_P1;SDS_P2;PMS_P1;PMS_P2;Temp;Humidity;BMP_temperature;BMP_pressure;BME280_temperature;BME280_humidity;BME280_pressure;Samples;Min_cycle;Max_cycle;Signal;HPM_P1;HPM_P2
2020/12/31 09:29:34;;;;;;;2.92;1.92;;;2.10;84.50;;;;;;6260781;22;851941;-80
2020/12/31 09:32:00;;;;;;;2.65;1.70;;;2.20;84.20;;;;;;6224217;23;20008;-80
2020/12/31 09:34:27;;;;;;;3.15;1.60;;;2.20;84.20;;;;;;6224559;23;20008;-80
2020/12/31 09:37:00;;;;;;;2.65;1.90;;;2.40;83.90;;;;;;6249976;23;20301;-81
2020/12/31 09:39:26;;;;;;;3.28;1.85;;;2.50;83.10;;;;;;6194405;23;20083;-80
2020/12/31 09:41:52;;;;;;;4.25;1.80;;;2.60;81.30;;;;;;6193867;23;20007;-81
2020/12/31 09:44:17;;;;;;;5.03;2.25;;;2.60;80.40;;;;;;6221479;23;20037;-82
2020/12/31 09:46:43;;;;;;;3.00;1.60;;;2.70;79.90;;;;;;6194641;23;20312;-80
2020/12/31 09:49:09;;;;;;;3.22;1.92;;;2.80;79.60;;;;;;6194629;23;20110;-79
2020/12/31 09:51:35;;;;;;;3.30;1.85;;;2.80;78.40;;;;;;6195893;23;20079;-81
2020/12/31 09:54:00;;;;;;;2.90;1.40;;;2.90;78.40;;;;;;6222317;23;19996;-80
2020/12/31 09:56:30;;;;;;;1.77;1.30;;;3.00;77.00;;;;;;6195750;23;20036;-81
2020/12/31 09:58:57;;;;;;;1.83;1.40;;;3.00;76.10;;;;;;6195544;23;20008;-81
2020/12/31 10:01:26;;;;;;;1.92;1.42;;;3.10;74.90;;;;;;6221761;23;20000;-81
2020/12/31 10:03:55;;;;;;;2.45;1.15;;;3.10;74.30;;;;;;6194734;23;20005;-80
2020/12/31 10:06:20;;;;;;;2.22;1.38;;;3.10;73.80;;;;;;6195273;23;20007;-82
2020/12/31 10:08:47;;;;;;;3.38;1.35;;;3.20;73.90;;;;;;6195408;23;20008;-82
2020/12/31 10:11:12;;;;;;;1.65;1.35;;;3.30;73.90;;;;;;6222927;23;20379;-81
2020/12/31 10:13:38;;;;;;;2.08;1.25;;;3.40;73.50;;;;;;6199400;23;20089;-81
2020/12/31 10:16:04;;;;;;;2.22;1.50;;;3.40;73.40;;;;;;6224462;23;20004;-80
2020/12/31 10:18:31;;;;;;;2.25;1.35;;;3.40;72.80;;;;;;6198893;23;20014;-80
2020/12/31 10:20:56;;;;;;;1.77;1.00;;;3.40;73.00;;;;;;6233224;23;20138;-79
2020/12/31 10:23:22;;;;;;;5.80;1.38;;;3.50;73.10;;;;;;6233826;23;20072;-80
2020/12/31 10:25:48;;;;;;;1.70;1.40;;;3.50;72.40;;;;;;6222308;23;20017;-81
2020/12/31 10:28:14;;;;;;;1.85;1.60;;;3.60;72.00;;;;;;6195328;23;20004;-81
2020/12/31 10:30:40;;;;;;;3.25;1.38;;;3.60;71.00;;;;;;6195227;23;20027;-79
2020/12/31 10:33:06;;;;;;;4.22;1.85;;;3.60;70.80;;;;;;6223753;23;19997;-81
2020/12/31 10:35:32;;;;;;;2.65;1.25;;;3.70;70.90;;;;;;6195170;23;20036;-79
2020/12/31 10:37:57;;;;;;;2.83;1.60;;;3.70;70.00;;;;;;6196243;23;20036;-81
2020/12/31 10:40:23;;;;;;;1.65;1.23;;;3.80;69.50;;;;;;6203869;23;19989;-77
2020/12/31 10:42:49;;;;;;;3.95;1.27;;;3.70;68.80;;;;;;6212513;23;20005;-77
2020/12/31 10:45:14;;;;;;;5.35;1.40;;;3.70;68.30;;;;;;6209989;23;20057;-78
2020/12/31 10:47:40;;;;;;;1.85;1.15;;;3.80;67.50;;;;;;6206726;23;20004;-80
2020/12/31 10:50:06;;;;;;;1.88;1.23;;;3.70;67.40;;;;;;6198556;23;20028;-82
2020/12/31 10:52:31;;;;;;;2.90;1.17;;;3.80;67.90;;;;;;6196990;23;20004;-82
2020/12/31 10:54:57;;;;;;;1.83;1.20;;;4.00;68.00;;;;;;6195911;23;20012;-82
2020/12/31 10:57:23;;;;;;;2.50;1.95;;;4.10;67.40;;;;;;6221819;23;20103;-82
2020/12/31 10:59:48;;;;;;;2.15;1.27;;;4.10;66.60;;;;;;6195711;23;20441;-81
2020/12/31 11:02:14;;;;;;;1.73;1.15;;;4.10;65.90;;;;;;6196492;23;20001;-82
2020/12/31 11:04:40;;;;;;;4.28;1.23;;;4.00;66.30;;;;;;6222565;23;20032;-82
2020/12/31 11:07:05;;;;;;;5.32;1.75;;;4.10;66.50;;;;;;6223013;23;20313;-82
2020/12/31 11:09:31;;;;;;;1.35;1.15;;;4.10;65.90;;;;;;6195829;23;20005;-81
2020/12/31 11:11:56;;;;;;;1.65;1.05;;;4.20;65.90;;;;;;6195703;23;20008;-81
2020/12/31 11:14:22;;;;;;;4.97;1.45;;;4.20;65.90;;;;;;6229536;23;19990;-81
2020/12/31 11:16:52;;;;;;;3.60;1.30;;;4.20;65.80;;;;;;6234833;23;20001;-82
2020/12/31 11:19:18;;;;;;;3.92;1.50;;;4.20;65.70;;;;;;6232150;23;20095;-81
2020/12/31 11:21:44;;;;;;;3.92;1.98;;;4.30;65.90;;;;;;6210910;23;20005;-82
2020/12/31 11:24:10;;;;;;;3.88;1.60;;;4.30;66.50;;;;;;6197499;23;20174;-80
2020/12/31 11:26:35;;;;;;;1.98;1.25;;;4.40;66.70;;;;;;6222726;23;19996;-82
2020/12/31 11:29:03;;;;;;;4.68;1.42;;;4.50;66.20;;;;;;6224732;23;20066;-81
2020/12/31 11:31:30;;;;;;;3.45;1.80;;;4.50;65.50;;;;;;6225674;23;19997;-82
2020/12/31 11:33:56;;;;;;;5.22;1.77;;;4.60;65.40;;;;;;6222724;23;20051;-81
2020/12/31 11:36:23;;;;;;;5.15;1.98;;;4.60;64.80;;;;;;6226513;23;20019;-82
2020/12/31 11:38:52;;;;;;;1.58;1.15;;;4.70;64.60;;;;;;6202048;23;20005;-81
2020/12/31 11:41:18;;;;;;;2.30;1.38;;;4.60;64.30;;;;;;6199250;23;19997;-81
2020/12/31 11:43:44;;;;;;;3.65;1.60;;;4.70;64.40;;;;;;6198463;23;20009;-81
2020/12/31 11:46:11;;;;;;;6.22;1.58;;;4.70;64.70;;;;;;6223979;23;20000;-81
2020/12/31 11:48:36;;;;;;;6.75;1.58;;;4.70;64.80;;;;;;6196978;23;20005;-81
2020/12/31 11:51:04;;;;;;;2.58;1.45;;;4.80;64.90;;;;;;6197718;23;20081;-82
2020/12/31 11:53:30;;;;;;;3.53;2.97;;;4.80;64.50;;;;;;6197467;23;20071;-82
2020/12/31 11:55:59;;;;;;;3.70;1.52;;;4.90;64.40;;;;;;6198147;23;20372;-83
2020/12/31 11:58:24;;;;;;;2.97;1.58;;;4.90;63.70;;;;;;6195918;23;20001;-82
2020/12/31 12:00:50;;;;;;;7.10;1.58;;;5.00;63.90;;;;;;6197348;23;19997;-81
2020/12/31 12:03:16;;;;;;;2.53;1.40;;;5.00;63.40;;;;;;6199355;23;20039;-82
2020/12/31 12:05:41;;;;;;;4.57;1.95;;;5.10;63.30;;;;;;6197126;23;20009;-82
2020/12/31 12:08:07;;;;;;;2.22;1.60;;;5.10;63.00;;;;;;6224455;23;20032;-82
2020/12/31 12:10:33;;;;;;;5.15;1.90;;;5.10;62.80;;;;;;6225199;23;20007;-82
2020/12/31 12:12:59;;;;;;;2.60;1.88;;;5.00;63.00;;;;;;6198721;23;20013;-82
2020/12/31 12:15:25;;;;;;;2.95;1.70;;;5.10;63.40;;;;;;6226252;23;20009;-82
2020/12/31 12:17:51;;;;;;;4.55;2.00;;;5.10;63.20;;;;;;6198485;23;20467;-80
2020/12/31 12:20:20;;;;;;;3.60;2.38;;;5.10;62.90;;;;;;6224577;23;19997;-81
2020/12/31 12:22:46;;;;;;;2.72;1.88;;;5.10;63.10;;;;;;6224361;23;20048;-81
2020/12/31 12:25:12;;;;;;;3.28;1.70;;;5.00;63.30;;;;;;6197809;23;20001;-81
2020/12/31 12:27:39;;;;;;;2.38;1.52;;;5.00;63.30;;;;;;6196950;23;20004;-81
2020/12/31 12:30:09;;;;;;;4.38;1.98;;;5.00;63.60;;;;;;6197711;23;20060;-81
2020/12/31 12:32:35;;;;;;;3.67;1.75;;;4.90;63.40;;;;;;6224446;23;19997;-81
2020/12/31 12:35:02;;;;;;;2.92;1.40;;;4.80;63.50;;;;;;6223954;23;20005;-81
2020/12/31 12:37:27;;;;;;;8.00;1.92;;;4.80;64.00;;;;;;6196801;23;20012;-81
2020/12/31 12:39:53;;;;;;;1.58;1.38;;;4.80;63.80;;;;;;6224906;23;20088;-80
2020/12/31 12:42:19;;;;;;;3.65;2.05;;;4.90;64.30;;;;;;6198436;23;20095;-81
2020/12/31 12:44:44;;;;;;;7.03;2.10;;;5.00;63.40;;;;;;6197829;23;20011;-79
2020/12/31 12:47:10;;;;;;;2.70;1.60;;;5.20;63.30;;;;;;6198976;23;20012;-81
2020/12/31 12:59:43;;;;;;;3.85;1.75;;;6.60;58.20;;;;;;6223186;23;20015;-81
2020/12/31 13:02:08;;;;;;;2.90;1.52;;;6.50;58.90;;;;;;6198627;23;20083;-81
2020/12/31 13:04:34;;;;;;;4.78;2.45;;;6.30;58.70;;;;;;6196677;23;20005;-81
2020/12/31 13:06:59;;;;;;;2.13;1.65;;;6.10;59.20;;;;;;6196887;23;20012;-80
2020/12/31 13:09:26;;;;;;;1.80;1.40;;;6.00;60.10;;;;;;6223924;23;20000;-80
2020/12/31 13:11:52;;;;;;;6.95;3.42;;;5.90;60.20;;;;;;6195076;23;20096;-83
2020/12/31 13:14:18;;;;;;;2.38;1.60;;;5.70;60.10;;;;;;6222063;23;20009;-82
2020/12/31 13:16:44;;;;;;;3.85;2.40;;;5.60;61.10;;;;;;6194668;23;20047;-81
2020/12/31 13:19:09;;;;;;;2.42;1.95;;;5.40;61.30;;;;;;6194718;23;20072;-81
2020/12/31 13:21:35;;;;;;;2.50;1.70;;;5.20;62.10;;;;;;6223139;23;20004;-84
2020/12/31 13:24:01;;;;;;;2.13;1.48;;;5.10;62.30;;;;;;6204241;23;20017;-83
2020/12/31 13:26:27;;;;;;;3.25;2.10;;;5.10;62.80;;;;;;6225729;23;20005;-83
2020/12/31 13:28:53;;;;;;;3.30;1.60;;;5.00;63.00;;;;;;6199517;23;20001;-82
2020/12/31 13:31:19;;;;;;;3.63;1.95;;;4.90;63.40;;;;;;6221803;23;20008;-81
2020/12/31 13:33:49;;;;;;;3.78;1.95;;;4.80;63.60;;;;;;6223239;23;20385;-82
2020/12/31 13:36:16;;;;;;;3.42;2.15;;;4.80;64.10;;;;;;6222237;23;20523;-82
2020/12/31 13:38:41;;;;;;;3.22;2.03;;;4.70;64.20;;;;;;6195592;23;20064;-83
2020/12/31 13:41:07;;;;;;;4.10;1.80;;;4.70;64.40;;;;;;6194079;23;20008;-81
2020/12/31 13:43:33;;;;;;;5.20;2.13;;;4.70;64.70;;;;;;6195308;23;20032;-82
2020/12/31 13:45:58;;;;;;;5.57;1.55;;;4.60;64.70;;;;;;6194495;23;20005;-81
2020/12/31 13:48:24;;;;;;;4.03;1.70;;;4.60;65.00;;;;;;6194545;23;20020;-82
2020/12/31 13:50:50;;;;;;;5.97;2.25;;;4.60;65.20;;;;;;6195950;23;20004;-83
2020/12/31 13:53:15;;;;;;;4.00;2.17;;;4.70;65.30;;;;;;6221990;23;20160;-82
2020/12/31 13:55:41;;;;;;;3.53;2.22;;;4.60;65.30;;;;;;6194883;23;20016;-81
2020/12/31 13:58:07;;;;;;;4.13;1.70;;;4.50;65.50;;;;;;6194944;23;20463;-82
2020/12/31 14:00:32;;;;;;;4.30;2.55;;;4.50;65.60;;;;;;6195297;23;20042;-82
2020/12/31 14:02:58;;;;;;;3.65;2.20;;;4.50;65.60;;;;;;6195085;23;20007;-82
2020/12/31 14:05:23;;;;;;;4.35;1.92;;;4.50;65.70;;;;;;6225347;23;19996;-83
2020/12/31 14:07:49;;;;;;;2.28;1.70;;;4.40;65.80;;;;;;6206814;23;20086;-81
2020/12/31 14:10:17;;;;;;;2.35;1.40;;;4.40;65.90;;;;;;6233403;23;20051;-81
2020/12/31 14:12:44;;;;;;;2.20;1.40;;;4.40;65.90;;;;;;6207133;23;20368;-81
2020/12/31 14:15:12;;;;;;;3.30;1.70;;;4.40;65.90;;;;;;6233670;23;20001;-80
2020/12/31 14:17:37;;;;;;;2.30;1.52;;;4.40;65.90;;;;;;6228532;23;20084;-83
2020/12/31 14:20:04;;;;;;;1.70;1.38;;;4.40;66.00;;;;;;6222785;23;20019;-83
2020/12/31 14:22:29;;;;;;;4.47;1.60;;;4.40;66.40;;;;;;6196651;23;20459;-82
2020/12/31 14:24:55;;;;;;;3.83;1.70;;;4.30;66.50;;;;;;6223120;23;20001;-81
2020/12/31 14:27:20;;;;;;;4.07;1.80;;;4.20;66.70;;;;;;6222240;23;20032;-83
2020/12/31 14:29:46;;;;;;;2.38;1.27;;;4.10;67.00;;;;;;6198466;23;20035;-82
2020/12/31 14:32:12;;;;;;;1.30;1.15;;;4.10;67.40;;;;;;6200510;23;20031;-82
2020/12/31 14:34:38;;;;;;;1.92;1.55;;;4.00;67.70;;;;;;6194782;23;20072;-82
2020/12/31 14:37:04;;;;;;;3.83;1.77;;;4.00;68.00;;;;;;6221564;23;20041;-81
2020/12/31 14:39:29;;;;;;;3.58;1.92;;;4.00;68.30;;;;;;6198352;23;20338;-81
2020/12/31 14:41:55;;;;;;;3.05;1.75;;;4.00;68.30;;;;;;6235924;23;20064;-82
2020/12/31 14:44:26;;;;;;;3.63;2.15;;;4.00;68.50;;;;;;6210914;23;20084;-81
2020/12/31 14:46:55;;;;;;;3.83;2.05;;;4.00;68.50;;;;;;6200760;23;20079;-81
2020/12/31 14:49:21;;;;;;;3.10;1.50;;;4.00;68.70;;;;;;6196953;23;20084;-82
2020/12/31 14:51:50;;;;;;;2.50;1.50;;;4.00;68.90;;;;;;6199667;23;20000;-84
2020/12/31 14:54:21;;;;;;;3.65;2.05;;;4.00;69.10;;;;;;6194198;23;20173;-82
2020/12/31 14:56:55;;;;;;;3.20;2.40;;;4.00;69.20;;;;;;6196669;23;20147;-83
2020/12/31 14:59:26;;;;;;;5.05;1.80;;;3.90;69.50;;;;;;6169669;23;20009;-83
2020/12/31 15:01:56;;;;;;;3.28;2.00;;;3.90;69.70;;;;;;6224778;23;20007;-79
2020/12/31 15:04:22;;;;;;;4.07;2.03;;;3.90;69.90;;;;;;6200900;23;20001;-79
2020/12/31 15:06:50;;;;;;;3.67;2.00;;;3.80;70.20;;;;;;6227664;23;20024;-79
2020/12/31 15:09:16;;;;;;;2.75;1.92;;;3.80;70.60;;;;;;6227952;23;20012;-79
2020/12/31 15:11:42;;;;;;;3.25;1.90;;;3.70;70.80;;;;;;6202547;23;20095;-80
2020/12/31 15:14:07;;;;;;;2.63;1.98;;;3.80;71.10;;;;;;6195747;23;20000;-78
2020/12/31 15:16:33;;;;;;;4.47;2.15;;;3.70;71.20;;;;;;6223190;23;20287;-79
2020/12/31 15:18:59;;;;;;;8.40;3.20;;;3.70;71.50;;;;;;6222410;23;20015;-78
2020/12/31 15:21:25;;;;;;;5.03;2.83;;;3.70;72.20;;;;;;6195719;23;20027;-79
2020/12/31 15:23:51;;;;;;;6.03;2.58;;;3.70;72.90;;;;;;6199654;23;20027;-79
2020/12/31 15:26:16;;;;;;;6.22;3.20;;;3.70;73.20;;;;;;6228643;23;20096;-81
2020/12/31 15:28:42;;;;;;;5.72;3.40;;;3.60;74.20;;;;;;6228660;23;20012;-79
2020/12/31 15:38:54;;;;;;;6.85;2.80;;;3.40;74.80;;;;;;6248497;22;20023;-79
2020/12/31 15:41:19;;;;;;;4.93;3.50;;;3.30;75.00;;;;;;6253476;22;20004;-79
2020/12/31 15:43:45;;;;;;;4.55;2.70;;;3.30;75.50;;;;;;6226233;23;20006;-79
2020/12/31 15:46:11;;;;;;;4.57;2.58;;;3.30;75.60;;;;;;6253066;23;20031;-79
2020/12/31 15:48:37;;;;;;;4.18;2.45;;;3.20;75.80;;;;;;6254799;23;20060;-79
2020/12/31 15:51:03;;;;;;;4.43;2.58;;;3.10;76.00;;;;;;6226196;23;20004;-79
2020/12/31 15:53:28;;;;;;;6.38;3.75;;;3.10;76.00;;;;;;6252442;23;20800;-79
2020/12/31 15:55:54;;;;;;;4.75;3.03;;;3.00;76.20;;;;;;6249635;23;20091;-79
2020/12/31 15:58:20;;;;;;;5.93;2.88;;;2.90;76.00;;;;;;6226438;23;20008;-80
2020/12/31 16:00:45;;;;;;;7.60;3.58;;;2.80;76.00;;;;;;6253208;22;20000;-80
2020/12/31 16:03:14;;;;;;;8.52;3.60;;;2.70;75.90;;;;;;6226965;23;20004;-80
2020/12/31 16:05:40;;;;;;;9.98;4.70;;;2.70;75.60;;;;;;6226275;23;20001;-79
2020/12/31 16:08:07;;;;;;;6.93;3.55;;;2.70;79.80;;;;;;6253134;23;20062;-80
2020/12/31 16:10:32;;;;;;;5.97;3.15;;;2.80;80.70;;;;;;6226285;23;20024;-80
2020/12/31 16:12:58;;;;;;;6.05;3.08;;;2.70;77.10;;;;;;6227047;23;20011;-79
2020/12/31 16:15:24;;;;;;;8.43;2.88;;;2.70;75.20;;;;;;6253142;23;20415;-80
2020/12/31 16:17:51;;;;;;;6.45;2.63;;;2.60;74.80;;;;;;6227053;23;20027;-80
2020/12/31 16:20:17;;;;;;;3.83;2.15;;;2.50;74.70;;;;;;6252551;22;20002;-79
2020/12/31 16:22:42;;;;;;;5.18;2.95;;;2.40;74.90;;;;;;6253931;23;20019;-79
2020/12/31 16:25:08;;;;;;;3.65;2.42;;;2.40;75.10;;;;;;6252397;23;20000;-79
2020/12/31 16:27:35;;;;;;;6.43;2.72;;;2.30;75.30;;;;;;6253127;23;20000;-82
2020/12/31 16:30:05;;;;;;;4.95;3.03;;;2.30;75.30;;;;;;6263528;22;20436;-81
2020/12/31 16:32:32;;;;;;;9.98;3.20;;;2.20;75.50;;;;;;6256541;23;20008;-80
2020/12/31 16:34:57;;;;;;;6.15;3.08;;;2.20;75.50;;;;;;6257000;23;20071;-79
2020/12/31 16:37:23;;;;;;;5.80;3.10;;;2.20;75.70;;;;;;6227716;23;20004;-80
2020/12/31 16:39:51;;;;;;;8.40;3.42;;;2.10;75.80;;;;;;6253371;22;20008;-80
2020/12/31 16:42:22;;;;;;;8.90;4.47;;;2.10;76.00;;;;;;6226243;23;20059;-80
2020/12/31 16:44:51;;;;;;;7.70;4.30;;;2.00;76.10;;;;;;6252715;23;20000;-79
2020/12/31 16:47:17;;;;;;;7.97;3.85;;;2.00;76.40;;;;;;6254875;23;20019;-84
2020/12/31 16:49:43;;;;;;;7.43;3.75;;;1.90;76.70;;;;;;6226378;23;20034;-81
2020/12/31 16:52:10;;;;;;;9.73;3.83;;;1.90;77.10;;;;;;6253497;23;20423;-80
2020/12/31 16:54:36;;;;;;;6.53;3.45;;;1.90;77.10;;;;;;6252246;23;20004;-80
2020/12/31 16:57:03;;;;;;;4.22;2.88;;;1.80;77.10;;;;;;6226173;23;20011;-80
2020/12/31 16:59:29;;;;;;;6.55;3.38;;;1.80;77.40;;;;;;6253371;22;20047;-80
2020/12/31 17:01:58;;;;;;;5.00;3.03;;;1.80;77.60;;;;;;6253118;23;19996;-80
2020/12/31 17:04:25;;;;;;;6.93;3.63;;;1.80;77.80;;;;;;6225818;23;20000;-80
2020/12/31 17:06:50;;;;;;;7.07;3.60;;;1.80;77.50;;;;;;6253815;23;20372;-81
2020/12/31 17:09:16;;;;;;;5.47;3.42;;;1.80;77.20;;;;;;6253108;22;20023;-81
2020/12/31 17:11:43;;;;;;;11.27;4.13;;;1.80;77.00;;;;;;6226477;23;20007;-80
2020/12/31 17:14:10;;;;;;;8.13;4.07;;;1.80;76.60;;;;;;6225836;23;20028;-80
2020/12/31 17:16:40;;;;;;;7.15;3.75;;;1.80;76.40;;;;;;6225411;23;20004;-80
2020/12/31 17:19:08;;;;;;;18.67;5.47;;;1.80;76.30;;;;;;6225632;23;20015;-79
2020/12/31 17:21:35;;;;;;;8.25;4.40;;;1.80;76.00;;;;;;6225726;23;20000;-79
2020/12/31 17:24:03;;;;;;;7.60;3.67;;;1.70;75.80;;;;;;6251914;23;20774;-78
2020/12/31 17:26:30;;;;;;;10.23;3.50;;;1.80;75.80;;;;;;6224601;23;20309;-79
2020/12/31 17:28:57;;;;;;;12.25;4.47;;;1.70;75.60;;;;;;6252431;23;20008;-80
2020/12/31 17:31:22;;;;;;;8.27;3.88;;;1.70;75.50;;;;;;6225148;23;20091;-79
2020/12/31 17:33:48;;;;;;;7.10;3.28;;;1.70;75.40;;;;;;6225362;23;20008;-79
2020/12/31 17:36:14;;;;;;;7.97;3.63;;;1.60;75.30;;;;;;6224100;23;20091;-80
2020/12/31 17:38:40;;;;;;;5.88;3.33;;;1.70;75.20;;;;;;6225352;23;20004;-80
2020/12/31 17:41:09;;;;;;;6.88;3.50;;;1.60;75.00;;;;;;6224782;23;20008;-80
2020/12/31 17:43:37;;;;;;;7.10;3.65;;;1.60;75.20;;;;;;6252671;23;20007;-80
2020/12/31 17:46:08;;;;;;;5.20;3.13;;;1.60;75.40;;;;;;6223581;23;20022;-79
2020/12/31 17:48:36;;;;;;;5.35;2.95;;;1.50;76.10;;;;;;6223013;23;20004;-81
2020/12/31 17:51:02;;;;;;;4.55;2.88;;;1.50;75.90;;;;;;6224466;23;20531;-81
2020/12/31 17:53:28;;;;;;;7.18;3.05;;;1.40;76.20;;;;;;6225038;23;20039;-81
2020/12/31 17:55:54;;;;;;;6.05;2.70;;;1.40;76.60;;;;;;6225378;23;20039;-82
2020/12/31 17:58:20;;;;;;;6.95;3.47;;;1.40;76.90;;;;;;6225527;23;20005;-82
2020/12/31 18:00:47;;;;;;;6.10;3.20;;;1.40;77.40;;;;;;6252451;22;19996;-81
2020/12/31 18:03:13;;;;;;;10.38;3.92;;;1.30;77.60;;;;;;6227108;23;20087;-81
2020/12/31 18:05:40;;;;;;;6.90;3.33;;;1.30;77.90;;;;;;6261557;23;20016;-80
2020/12/31 18:08:06;;;;;;;5.90;3.28;;;1.30;78.20;;;;;;6268805;22;19995;-81
2020/12/31 18:10:33;;;;;;;8.05;3.72;;;1.30;78.30;;;;;;6254684;22;20023;-83
2020/12/31 18:12:59;;;;;;;10.45;4.28;;;1.20;78.60;;;;;;6253484;23;20044;-81
2020/12/31 18:15:29;;;;;;;10.52;4.97;;;1.20;79.00;;;;;;6255641;23;20003;-80
2020/12/31 18:17:56;;;;;;;8.45;4.97;;;1.20;79.00;;;;;;6242562;23;20000;-79
2020/12/31 18:20:23;;;;;;;7.60;4.32;;;1.20;79.10;;;;;;6248602;22;20007;-80
2020/12/31 18:22:50;;;;;;;9.07;4.65;;;1.10;79.10;;;;;;6274077;22;19996;-83
2020/12/31 18:25:15;;;;;;;8.00;4.43;;;1.10;79.30;;;;;;6272329;22;19988;-83
2020/12/31 18:27:42;;;;;;;6.03;3.65;;;1.00;79.50;;;;;;6247077;23;20018;-82
2020/12/31 18:30:09;;;;;;;5.75;3.55;;;1.10;79.70;;;;;;6245141;23;20020;-82
2020/12/31 18:32:36;;;;;;;8.55;3.45;;;1.00;79.90;;;;;;6267510;23;19988;-82
2020/12/31 18:35:03;;;;;;;7.32;3.35;;;1.00;80.20;;;;;;6244518;23;20008;-82
2020/12/31 18:37:29;;;;;;;11.27;3.97;;;1.00;80.70;;;;;;6225148;23;20083;-82
2020/12/31 18:39:55;;;;;;;5.80;3.22;;;1.00;81.10;;;;;;6250243;22;20011;-81
2020/12/31 18:42:22;;;;;;;8.38;4.38;;;1.00;81.20;;;;;;6222835;23;20031;-82
2020/12/31 18:44:49;;;;;;;6.80;3.78;;;1.00;81.20;;;;;;6249120;23;20004;-82
2020/12/31 18:47:15;;;;;;;7.57;3.78;;;0.90;81.30;;;;;;6225371;23;20031;-82
2020/12/31 18:49:41;;;;;;;5.80;3.78;;;0.90;81.50;;;;;;6255381;22;20011;-82
2020/12/31 18:52:19;;;;;;;7.95;4.32;;;0.90;81.70;;;;;;6229742;23;20004;-82
2020/12/31 18:54:46;;;;;;;9.00;4.75;;;0.90;82.30;;;;;;6255717;23;20015;-81
2020/12/31 18:57:17;;;;;;;7.13;3.83;;;0.90;82.20;;;;;;6259066;23;20007;-81
2020/12/31 18:59:43;;;;;;;7.55;3.50;;;0.80;82.00;;;;;;6268029;22;20031;-81
2020/12/31 19:02:08;;;;;;;5.43;3.08;;;0.80;82.10;;;;;;6266546;23;20032;-81
2020/12/31 19:04:35;;;;;;;8.52;4.43;;;0.70;82.10;;;;;;6253390;23;20012;-81
2020/12/31 19:07:02;;;;;;;9.93;4.85;;;0.70;82.40;;;;;;6242593;23;20027;-80
2020/12/31 19:09:28;;;;;;;10.25;4.50;;;0.70;82.20;;;;;;6270541;22;20011;-80
2020/12/31 19:11:55;;;;;;;11.80;4.97;;;0.70;82.20;;;;;;6270341;23;20000;-80
2020/12/31 19:14:22;;;;;;;9.65;4.35;;;0.70;82.20;;;;;;6267533;23;20011;-78
2020/12/31 19:16:47;;;;;;;10.15;4.60;;;0.70;82.10;;;;;;6255648;23;20004;-80
2020/12/31 19:19:13;;;;;;;8.65;4.03;;;0.70;82.10;;;;;;6253699;22;20011;-80
2020/12/31 19:21:39;;;;;;;8.85;4.43;;;0.70;82.10;;;;;;6225560;23;19996;-81
2020/12/31 19:24:06;;;;;;;8.23;3.80;;;0.70;82.10;;;;;;6251775;23;20000;-80
2020/12/31 19:26:32;;;;;;;7.57;4.18;;;0.70;82.00;;;;;;6223696;23;20008;-80
2020/12/31 19:28:58;;;;;;;8.90;4.35;;;0.60;82.30;;;;;;6251919;23;20000;-80
2020/12/31 19:31:24;;;;;;;10.70;4.30;;;0.60;82.50;;;;;;6253037;22;20048;-80
2020/12/31 19:33:50;;;;;;;10.10;5.13;;;0.60;82.70;;;;;;6226014;23;20004;-80
2020/12/31 19:36:16;;;;;;;10.52;5.10;;;0.60;82.80;;;;;;6226178;23;20059;-80
2020/12/31 19:38:42;;;;;;;7.57;4.60;;;0.60;82.80;;;;;;6224169;23;20012;-79
2020/12/31 19:41:08;;;;;;;10.15;5.07;;;0.60;82.80;;;;;;6251555;22;20004;-80
2020/12/31 19:43:34;;;;;;;10.50;4.75;;;0.60;82.70;;;;;;6251639;23;19996;-80
2020/12/31 19:45:59;;;;;;;11.15;5.55;;;0.60;82.70;;;;;;6252207;23;20066;-80
2020/12/31 19:48:25;;;;;;;9.25;4.85;;;0.60;82.70;;;;;;6252247;23;20000;-80
2020/12/31 19:50:51;;;;;;;10.60;4.82;;;0.70;82.70;;;;;;6224904;23;20054;-80
2020/12/31 19:53:17;;;;;;;10.55;5.97;;;0.70;82.80;;;;;;6252260;23;20004;-81
2020/12/31 19:55:52;;;;;;;8.63;5.25;;;0.70;82.60;;;;;;6226961;23;20009;-80
2020/12/31 19:58:17;;;;;;;9.45;5.00;;;0.80;82.40;;;;;;6230851;23;20451;-81
2020/12/31 20:00:43;;;;;;;8.50;4.78;;;0.80;82.20;;;;;;6241197;23;19988;-80
2020/12/31 20:03:09;;;;;;;8.20;5.18;;;0.80;82.90;;;;;;6270514;23;19996;-80
2020/12/31 20:05:35;;;;;;;12.77;5.80;;;0.90;82.30;;;;;;6242349;23;20329;-80
2020/12/31 20:08:00;;;;;;;13.10;6.40;;;0.90;82.30;;;;;;6238720;23;20007;-81
2020/12/31 20:10:26;;;;;;;11.27;6.38;;;0.90;82.20;;;;;;6232726;23;20008;-81
2020/12/31 20:12:53;;;;;;;10.57;5.60;;;0.90;82.50;;;;;;6231897;23;20543;-81
2020/12/31 20:15:20;;;;;;;11.88;5.93;;;0.90;82.60;;;;;;6227602;23;20058;-81
2020/12/31 20:17:46;;;;;;;13.45;7.53;;;0.90;82.50;;;;;;6228109;23;20040;-80
2020/12/31 20:20:12;;;;;;;15.45;8.07;;;1.00;82.70;;;;;;6255126;22;20080;-81
2020/12/31 20:22:38;;;;;;;20.00;9.35;;;1.00;82.70;;;;;;6254300;23;20031;-80
2020/12/31 20:25:05;;;;;;;19.67;10.32;;;1.00;82.60;;;;;;6227160;23;20004;-81
2020/12/31 20:27:30;;;;;;;33.58;15.02;;;1.10;82.60;;;;;;6226492;23;20008;-81
2020/12/31 20:29:56;;;;;;;33.40;15.18;;;1.10;82.40;;;;;;6227455;23;20322;-81
2020/12/31 20:32:22;;;;;;;29.75;12.70;;;1.20;82.50;;;;;;6255117;23;20340;-80
2020/12/31 20:34:48;;;;;;;20.30;9.70;;;1.20;82.30;;;;;;6228580;23;20004;-81
2020/12/31 20:37:14;;;;;;;17.92;9.35;;;1.30;82.20;;;;;;6256318;23;20000;-81
2020/12/31 20:39:41;;;;;;;15.35;7.32;;;1.30;81.90;;;;;;6253647;22;20459;-81
2020/12/31 20:42:08;;;;;;;15.55;8.57;;;1.40;82.10;;;;;;6254356;23;20063;-80
2020/12/31 20:44:34;;;;;;;18.95;8.43;;;1.40;81.90;;;;;;6254447;23;20000;-80
2020/12/31 20:46:59;;;;;;;14.52;7.90;;;1.50;81.90;;;;;;6227225;23;20011;-81
2020/12/31 20:49:25;;;;;;;17.30;8.10;;;1.50;81.80;;;;;;6230154;22;19996;-81
2020/12/31 20:51:53;;;;;;;12.27;6.85;;;1.50;81.20;;;;;;6258060;23;20079;-81
2020/12/31 20:54:19;;;;;;;15.52;7.85;;;1.60;81.00;;;;;;6231546;23;20056;-81
2020/12/31 20:56:45;;;;;;;10.02;6.55;;;1.60;79.70;;;;;;6255403;23;20054;-81
2020/12/31 20:59:11;;;;;;;13.95;7.13;;;1.60;79.60;;;;;;6233760;23;20039;-81
2020/12/31 21:01:38;;;;;;;14.18;7.90;;;1.70;79.30;;;;;;6244984;23;20004;-81
2020/12/31 21:04:04;;;;;;;10.93;5.97;;;1.70;78.60;;;;;;6268438;23;19997;-81
2020/12/31 21:06:30;;;;;;;9.75;5.38;;;1.80;78.60;;;;;;6228737;23;20004;-81
2020/12/31 21:08:55;;;;;;;8.05;5.10;;;1.80;78.70;;;;;;6255403;23;20004;-83
2020/12/31 21:11:21;;;;;;;9.68;5.50;;;1.90;78.70;;;;;;6253381;22;20438;-79
2020/12/31 21:13:47;;;;;;;10.98;6.13;;;1.90;79.10;;;;;;6232614;23;20056;-82
2020/12/31 21:16:16;;;;;;;14.43;7.35;;;2.00;78.30;;;;;;6270265;23;20022;-81
2020/12/31 21:18:42;;;;;;;15.40;7.57;;;2.00;78.20;;;;;;6243083;23;20018;-81
2020/12/31 21:21:11;;;;;;;10.50;6.28;;;2.00;78.20;;;;;;6241468;23;20031;-81
2020/12/31 21:23:40;;;;;;;17.20;7.63;;;2.00;78.30;;;;;;6270556;23;20011;-81
2020/12/31 21:26:13;;;;;;;15.43;7.72;;;2.00;78.60;;;;;;6269931;23;19996;-81
2020/12/31 21:28:40;;;;;;;14.80;8.13;;;2.00;78.90;;;;;;6244723;23;20004;-81
2020/12/31 21:31:06;;;;;;;16.83;8.90;;;2.00;79.30;;;;;;6239400;23;20008;-82
2020/12/31 21:33:32;;;;;;;12.85;7.32;;;1.90;79.60;;;;;;6253237;22;20031;-83
2020/12/31 21:36:01;;;;;;;17.85;9.38;;;1.90;79.70;;;;;;6253517;23;20011;-82
2020/12/31 21:38:27;;;;;;;16.63;7.93;;;1.90;79.40;;;;;;6252291;23;20457;-83
2020/12/31 21:40:56;;;;;;;19.10;9.63;;;1.80;79.10;;;;;;6224853;23;20031;-84
2020/12/31 21:43:22;;;;;;;24.25;9.85;;;1.80;79.10;;;;;;6227801;23;20007;-84
2020/12/31 21:45:51;;;;;;;26.27;10.27;;;1.70;79.40;;;;;;6252534;23;19996;-83
2020/12/31 21:48:16;;;;;;;17.60;9.38;;;1.70;79.90;;;;;;6235163;23;20015;-84
2020/12/31 21:50:54;;;;;;;21.50;12.13;;;1.60;80.20;;;;;;6261000;23;20023;-83
2020/12/31 21:53:20;;;;;;;25.42;13.00;;;1.60;80.80;;;;;;6252650;22;20007;-84
2020/12/31 21:55:45;;;;;;;29.02;13.60;;;1.60;82.30;;;;;;6251623;23;20000;-85
2020/12/31 21:58:11;;;;;;;24.70;12.70;;;1.60;82.60;;;;;;6224328;23;20043;-82
2020/12/31 22:00:36;;;;;;;25.60;12.43;;;1.50;82.50;;;;;;6251255;23;20005;-82
2020/12/31 22:03:02;;;;;;;22.08;11.20;;;1.50;82.60;;;;;;6224946;23;20008;-81
2020/12/31 22:05:28;;;;;;;20.17;10.65;;;1.40;81.90;;;;;;6224126;23;20005;-83
2020/12/31 22:07:53;;;;;;;18.90;9.60;;;1.40;81.40;;;;;;6250536;23;19996;-84
2020/12/31 22:10:19;;;;;;;21.00;9.25;;;1.40;81.20;;;;;;6225059;23;20000;-82
2020/12/31 22:12:46;;;;;;;18.10;9.05;;;1.40;81.00;;;;;;6224392;23;20449;-82
2020/12/31 22:15:13;;;;;;;20.10;8.98;;;1.40;80.80;;;;;;6223752;23;20018;-86
2020/12/31 22:17:38;;;;;;;24.55;10.32;;;1.40;80.70;;;;;;6223442;23;20009;-85
2020/12/31 22:20:07;;;;;;;21.50;10.73;;;1.40;80.80;;;;;;6223798;23;20462;-83
2020/12/31 22:22:33;;;;;;;21.52;9.90;;;1.40;80.70;;;;;;6251463;22;20011;-82
2020/12/31 22:24:59;;;;;;;21.13;9.93;;;1.30;80.80;;;;;;6224208;23;20004;-84
2020/12/31 22:27:26;;;;;;;17.02;8.85;;;1.30;81.00;;;;;;6223023;23;20027;-83
2020/12/31 22:29:53;;;;;;;21.10;10.77;;;1.30;81.40;;;;;;6224951;23;20023;-84
2020/12/31 22:32:19;;;;;;;19.35;9.25;;;1.20;81.70;;;;;;6225171;23;20000;-84
2020/12/31 22:34:47;;;;;;;15.32;8.40;;;1.20;82.20;;;;;;6246553;23;20013;-83